createdAt,value
2019-03-16T00:02:02.198Z,0.70
2019-03-16T00:04:29.475Z,0.70
2019-03-16T00:06:56.754Z,0.70
2019-03-16T00:09:24.135Z,0.70
2019-03-16T00:11:51.466Z,0.70
2019-03-16T00:14:19.043Z,0.70
2019-03-16T00:16:46.418Z,0.70
2019-03-16T00:19:13.797Z,0.70
2019-03-16T00:21:41.058Z,0.70
2019-03-16T00:24:08.419Z,0.70
2019-03-16T00:26:35.667Z,0.80
2019-03-16T00:29:02.916Z,0.70
2019-03-16T00:31:30.279Z,0.77
2019-03-16T00:33:57.659Z,0.70
2019-03-16T00:36:24.938Z,0.60
2019-03-16T00:38:52.310Z,0.70
2019-03-16T00:41:19.763Z,0.80
2019-03-16T00:43:47.024Z,0.60
2019-03-16T00:46:14.394Z,0.70
2019-03-16T00:48:41.935Z,1.00
2019-03-16T00:51:09.367Z,1.33
2019-03-16T00:53:36.950Z,0.93
2019-03-16T00:56:04.423Z,0.90
2019-03-16T00:58:31.734Z,0.90
2019-03-16T01:00:59.133Z,0.97
2019-03-16T01:03:26.548Z,1.00
2019-03-16T01:05:53.926Z,0.90
2019-03-16T01:08:21.325Z,0.90
2019-03-16T01:10:48.726Z,0.90
2019-03-16T01:13:16.115Z,0.90
2019-03-16T01:15:43.478Z,1.00
2019-03-16T01:18:10.997Z,0.93
2019-03-16T01:20:38.263Z,1.00
2019-03-16T01:23:05.644Z,1.17
2019-03-16T01:25:33.050Z,0.97
2019-03-16T01:28:00.514Z,1.00
2019-03-16T01:30:28.096Z,1.30
2019-03-16T01:32:55.561Z,1.00
2019-03-16T01:35:22.844Z,0.80
2019-03-16T01:37:50.215Z,1.00
2019-03-16T01:40:17.579Z,1.00
2019-03-16T01:42:45.099Z,0.90
2019-03-16T01:45:12.624Z,0.90
2019-03-16T01:47:39.895Z,1.00
2019-03-16T01:50:07.850Z,0.90
2019-03-16T01:52:35.300Z,1.00
2019-03-16T01:55:03.418Z,0.97
2019-03-16T01:57:30.825Z,1.40
2019-03-16T01:59:58.302Z,1.37
2019-03-16T02:02:25.648Z,3.40
2019-03-16T02:04:53.012Z,1.40
2019-03-16T02:07:20.267Z,1.00
2019-03-16T02:09:47.791Z,1.30
2019-03-16T02:12:15.287Z,1.10
2019-03-16T02:14:42.646Z,1.40
2019-03-16T02:17:09.990Z,1.27
2019-03-16T02:19:37.356Z,0.90
2019-03-16T02:22:04.849Z,1.13
2019-03-16T02:24:32.237Z,1.33
2019-03-16T02:26:59.618Z,1.30
2019-03-16T02:29:27.455Z,1.20
2019-03-16T02:31:56.839Z,1.10
2019-03-16T02:34:24.404Z,1.50
2019-03-16T02:36:52.681Z,1.23
2019-03-16T02:39:20.067Z,1.60
2019-03-16T02:41:47.950Z,1.40
2019-03-16T02:44:15.494Z,2.30
2019-03-16T02:46:42.964Z,2.03
2019-03-16T02:49:12.431Z,1.60
2019-03-16T02:51:39.911Z,1.80
2019-03-16T02:54:07.311Z,1.70
2019-03-16T02:56:34.571Z,2.37
2019-03-16T02:59:02.018Z,2.13
2019-03-16T03:01:29.524Z,2.60
2019-03-16T03:03:56.845Z,2.73
2019-03-16T03:06:24.520Z,3.57
2019-03-16T03:08:51.895Z,2.67
2019-03-16T03:11:19.808Z,2.60
2019-03-16T03:13:47.263Z,2.27
2019-03-16T03:16:15.299Z,2.03
2019-03-16T03:18:42.738Z,2.70
2019-03-16T03:21:10.229Z,3.27
2019-03-16T03:23:37.612Z,2.23
2019-03-16T03:26:05.107Z,2.50
2019-03-16T03:28:32.577Z,2.23
2019-03-16T03:30:59.991Z,2.33
2019-03-16T03:33:27.291Z,2.20
2019-03-16T03:35:54.883Z,2.43
2019-03-16T03:38:22.167Z,2.67
2019-03-16T03:40:49.610Z,2.23
2019-03-16T03:43:16.966Z,2.80
2019-03-16T03:45:44.339Z,2.87
2019-03-16T03:48:12.121Z,2.13
2019-03-16T03:50:39.691Z,2.80
2019-03-16T03:53:07.080Z,2.43
2019-03-16T03:55:34.478Z,2.70
2019-03-16T03:58:01.955Z,2.37
2019-03-16T04:00:29.467Z,2.70
2019-03-16T04:02:57.044Z,2.70
2019-03-16T04:05:24.441Z,2.00
2019-03-16T04:07:52.063Z,2.87
2019-03-16T04:10:19.353Z,2.60
2019-03-16T04:12:46.890Z,2.40
2019-03-16T04:15:14.434Z,2.87
2019-03-16T04:17:41.709Z,2.60
2019-03-16T04:20:09.091Z,2.40
2019-03-16T04:22:36.697Z,3.10
2019-03-16T04:25:04.574Z,2.33
2019-03-16T04:27:32.060Z,2.47
2019-03-16T04:29:59.517Z,3.17
2019-03-16T04:32:26.928Z,2.60
2019-03-16T04:34:54.433Z,2.63
2019-03-16T04:37:21.795Z,2.93
2019-03-16T04:39:49.178Z,2.17
2019-03-16T04:42:16.550Z,2.77
2019-03-16T04:44:43.899Z,2.97
2019-03-16T04:47:11.267Z,3.00
2019-03-16T04:49:38.724Z,2.53
2019-03-16T04:52:06.179Z,2.47
2019-03-16T04:54:33.434Z,3.37
2019-03-16T04:57:00.922Z,2.20
2019-03-16T04:59:28.431Z,2.83
2019-03-16T05:01:55.867Z,2.57
2019-03-16T05:04:23.357Z,2.97
2019-03-16T05:06:50.759Z,2.77
2019-03-16T05:09:18.119Z,4.13
2019-03-16T05:11:45.480Z,2.57
2019-03-16T05:14:12.920Z,2.77
2019-03-16T05:16:40.319Z,2.20
2019-03-16T05:19:07.599Z,1.80
2019-03-16T05:21:34.856Z,2.80
2019-03-16T05:24:03.012Z,2.30
2019-03-16T05:26:30.674Z,2.20
2019-03-16T05:28:58.308Z,2.73
2019-03-16T05:31:25.978Z,2.50
2019-03-16T05:33:53.592Z,2.00
2019-03-16T05:36:20.951Z,2.10
2019-03-16T05:38:48.370Z,1.97
2019-03-16T05:41:16.213Z,2.50
2019-03-16T05:43:43.858Z,2.23
2019-03-16T05:46:11.225Z,2.13
2019-03-16T05:48:38.682Z,2.40
2019-03-16T05:51:06.119Z,2.53
2019-03-16T05:53:33.635Z,1.83
2019-03-16T05:56:01.107Z,2.27
2019-03-16T05:58:28.538Z,1.90
2019-03-16T06:00:55.920Z,2.10
2019-03-16T06:03:23.311Z,3.73
2019-03-16T06:05:50.735Z,1.80
2019-03-16T06:08:18.191Z,2.20
2019-03-16T06:10:45.602Z,2.23
2019-03-16T06:13:12.915Z,2.37
2019-03-16T06:15:40.406Z,3.03
2019-03-16T06:18:07.927Z,1.93
2019-03-16T06:20:35.600Z,2.00
2019-03-16T06:23:03.026Z,1.47
2019-03-16T06:25:30.566Z,1.60
2019-03-16T06:27:58.010Z,1.20
2019-03-16T06:30:25.483Z,2.23
2019-03-16T06:32:52.806Z,1.90
2019-03-16T06:35:25.483Z,1.40
2019-03-16T06:37:49.511Z,1.47
2019-03-16T06:40:16.894Z,2.33
2019-03-16T06:42:44.131Z,2.63
2019-03-16T06:45:11.554Z,2.27
2019-03-16T06:47:39.196Z,2.00
2019-03-16T06:50:07.915Z,1.50
2019-03-16T06:52:35.311Z,1.20
2019-03-16T06:55:03.254Z,1.33
2019-03-16T06:57:30.604Z,1.40
2019-03-16T06:59:58.010Z,1.53
2019-03-16T07:02:25.397Z,1.40
2019-03-16T07:04:52.851Z,1.70
2019-03-16T07:07:20.438Z,3.10
2019-03-16T07:09:47.981Z,3.20
2019-03-16T07:12:15.251Z,2.70
2019-03-16T07:14:42.631Z,3.00
2019-03-16T07:17:10.032Z,2.50
2019-03-16T07:19:37.428Z,1.23
2019-03-16T07:22:05.122Z,1.30
2019-03-16T07:24:32.639Z,1.30
2019-03-16T07:27:00.116Z,1.60
2019-03-16T07:29:27.691Z,1.20
2019-03-16T07:31:55.011Z,2.23
2019-03-16T07:34:22.438Z,1.53
2019-03-16T07:36:49.774Z,1.67
2019-03-16T07:39:17.275Z,1.57
2019-03-16T07:41:44.635Z,1.47
2019-03-16T07:44:12.063Z,1.70
2019-03-16T07:46:39.435Z,1.37
2019-03-16T07:49:06.915Z,2.00
2019-03-16T07:51:34.495Z,1.90
2019-03-16T07:54:02.019Z,1.70
2019-03-16T07:56:29.460Z,1.63
2019-03-16T07:58:57.058Z,1.60
2019-03-16T08:01:24.664Z,2.00
2019-03-16T08:03:52.052Z,2.77
2019-03-16T08:06:19.811Z,1.77
2019-03-16T08:08:47.183Z,1.80
2019-03-16T08:11:14.635Z,2.10
2019-03-16T08:13:42.012Z,1.60
2019-03-16T08:16:09.575Z,2.17
2019-03-16T08:18:36.915Z,2.50
2019-03-16T08:21:04.423Z,1.80
2019-03-16T08:23:31.813Z,1.63
2019-03-16T08:25:59.220Z,1.60
2019-03-16T08:28:26.588Z,1.60
2019-03-16T08:30:56.705Z,1.60
2019-03-16T08:33:23.999Z,1.63
2019-03-16T08:35:51.396Z,1.90
2019-03-16T08:38:18.798Z,2.60
2019-03-16T08:40:46.259Z,1.77
2019-03-16T08:43:13.512Z,1.70
2019-03-16T08:45:41.028Z,1.43
2019-03-16T08:48:08.421Z,1.97
2019-03-16T08:50:35.851Z,1.80
2019-03-16T08:53:03.521Z,2.07
2019-03-16T08:55:30.826Z,2.63
2019-03-16T08:58:06.077Z,2.30
2019-03-16T09:00:28.122Z,1.67
2019-03-16T09:02:55.400Z,2.30
2019-03-16T09:05:22.767Z,1.70
2019-03-16T09:07:50.167Z,1.70
2019-03-16T09:10:17.613Z,1.93
2019-03-16T09:12:54.421Z,1.57
2019-03-16T09:15:14.335Z,3.00
2019-03-16T09:17:41.851Z,1.70
2019-03-16T09:20:09.258Z,1.80
2019-03-16T09:22:36.806Z,1.77
2019-03-16T09:25:04.518Z,1.90
2019-03-16T09:27:32.021Z,1.40
2019-03-16T09:29:59.753Z,1.50
2019-03-16T09:32:27.086Z,1.20
2019-03-16T09:34:54.589Z,1.20
2019-03-16T09:37:22.063Z,2.47
2019-03-16T09:39:49.621Z,1.80
2019-03-16T09:42:16.994Z,1.50
2019-03-16T09:44:44.426Z,1.33
2019-03-16T09:47:11.828Z,1.23
2019-03-16T09:49:39.261Z,1.60
2019-03-16T09:52:06.732Z,1.53
2019-03-16T09:54:34.347Z,1.70
2019-03-16T09:57:01.962Z,2.07
2019-03-16T09:59:29.674Z,1.63
2019-03-16T10:01:56.922Z,1.87
2019-03-16T10:04:24.481Z,1.50
2019-03-16T10:06:52.080Z,1.47
2019-03-16T10:09:19.578Z,1.60
2019-03-16T10:11:47.075Z,1.40
2019-03-16T10:14:14.723Z,1.40
2019-03-16T10:16:42.250Z,1.57
2019-03-16T10:19:09.639Z,2.17
2019-03-16T10:21:37.200Z,1.77
2019-03-16T10:24:04.787Z,2.03
2019-03-16T10:26:32.206Z,1.73
2019-03-16T10:28:59.620Z,2.10
2019-03-16T10:31:26.968Z,2.00
2019-03-16T10:33:54.379Z,2.20
2019-03-16T10:36:21.861Z,1.77
2019-03-16T10:38:49.365Z,2.00
2019-03-16T10:41:16.877Z,1.67
2019-03-16T10:43:44.224Z,1.80
2019-03-16T10:46:11.573Z,1.97
2019-03-16T10:48:38.851Z,1.37
2019-03-16T10:51:06.246Z,1.37
2019-03-16T10:53:34.755Z,1.60
2019-03-16T10:56:02.156Z,1.90
2019-03-16T10:58:29.549Z,1.70
2019-03-16T11:00:56.922Z,1.50
2019-03-16T11:03:24.294Z,1.80
2019-03-16T11:05:51.583Z,2.30
2019-03-16T11:08:19.024Z,2.50
2019-03-16T11:10:46.395Z,2.43
2019-03-16T11:13:14.781Z,2.93
2019-03-16T11:15:42.169Z,2.87
2019-03-16T11:18:09.627Z,1.77
2019-03-16T11:20:37.003Z,2.40
2019-03-16T11:23:04.370Z,2.27
2019-03-16T11:25:31.787Z,2.07
2019-03-16T11:27:59.234Z,1.83
2019-03-16T11:30:26.639Z,1.53
2019-03-16T11:32:54.031Z,2.33
2019-03-16T11:35:21.511Z,1.60
2019-03-16T11:37:48.867Z,1.70
2019-03-16T11:40:16.264Z,1.80
2019-03-16T11:42:43.755Z,1.80
2019-03-16T11:45:11.794Z,1.80
2019-03-16T11:47:39.403Z,1.80
2019-03-16T11:50:07.635Z,1.80
2019-03-16T11:52:35.002Z,1.90
2019-03-16T11:55:02.336Z,2.10
2019-03-16T11:57:29.799Z,2.30
2019-03-16T11:59:57.187Z,2.50
2019-03-16T12:02:24.555Z,3.00
2019-03-16T12:04:51.966Z,3.83
2019-03-16T12:07:19.434Z,3.00
2019-03-16T12:09:46.857Z,2.50
2019-03-16T12:12:14.223Z,1.70
2019-03-16T12:14:41.795Z,1.67
2019-03-16T12:17:09.189Z,1.60
2019-03-16T12:19:36.851Z,2.47
2019-03-16T12:22:04.150Z,2.17
2019-03-16T12:24:31.531Z,2.03
2019-03-16T12:26:58.932Z,1.80
2019-03-16T12:29:33.864Z,2.20
2019-03-16T12:31:55.653Z,1.90
2019-03-16T12:34:25.057Z,2.03
2019-03-16T12:36:52.431Z,1.90
2019-03-16T12:39:19.766Z,2.30
2019-03-16T12:41:47.167Z,2.00
2019-03-16T12:44:14.550Z,2.20
2019-03-16T12:46:41.982Z,1.80
2019-03-16T12:49:09.419Z,2.70
2019-03-16T12:51:36.844Z,5.60
2019-03-16T12:54:04.318Z,3.20
2019-03-16T12:56:31.602Z,2.23
2019-03-16T12:59:09.855Z,1.97
2019-03-16T13:01:28.279Z,2.63
2019-03-16T13:03:55.704Z,2.30
2019-03-16T13:06:23.270Z,3.10
2019-03-16T13:08:50.647Z,2.87
2019-03-16T13:11:18.159Z,4.53
2019-03-16T13:13:45.670Z,3.90
2019-03-16T13:16:13.035Z,2.83
2019-03-16T13:18:40.438Z,2.50
2019-03-16T13:21:08.032Z,2.13
2019-03-16T13:23:37.443Z,2.57
2019-03-16T13:26:04.987Z,2.73
2019-03-16T13:28:32.497Z,2.80
2019-03-16T13:30:59.880Z,2.43
2019-03-16T13:33:27.378Z,2.70
2019-03-16T13:35:54.652Z,2.60
2019-03-16T13:38:22.136Z,3.13
2019-03-16T13:40:49.649Z,3.27
2019-03-16T13:43:17.187Z,2.40
2019-03-16T13:45:44.701Z,3.27
2019-03-16T13:48:12.115Z,2.70
2019-03-16T13:50:39.470Z,3.00
2019-03-16T13:53:07.323Z,2.73
2019-03-16T13:55:34.900Z,2.53
2019-03-16T13:58:02.381Z,2.60
2019-03-16T14:00:30.019Z,2.90
2019-03-16T14:02:57.740Z,3.40
2019-03-16T14:05:25.346Z,3.10
2019-03-16T14:07:52.768Z,4.30
2019-03-16T14:10:20.602Z,2.60
2019-03-16T14:12:48.187Z,2.83
2019-03-16T14:15:15.686Z,3.23
2019-03-16T14:17:43.403Z,2.47
2019-03-16T14:20:12.519Z,3.43
2019-03-16T14:22:39.779Z,2.70
2019-03-16T14:25:07.623Z,5.23
2019-03-16T14:27:35.092Z,2.77
2019-03-16T14:30:02.576Z,2.80
2019-03-16T14:32:29.935Z,4.10
2019-03-16T14:34:57.299Z,3.10
2019-03-16T14:37:24.953Z,2.67
2019-03-16T14:39:52.759Z,3.37
2019-03-16T14:42:20.103Z,2.70
2019-03-16T14:44:47.491Z,2.80
2019-03-16T14:47:14.863Z,2.03
2019-03-16T14:49:42.439Z,2.53
2019-03-16T14:52:10.113Z,2.43
2019-03-16T14:54:37.540Z,1.83
2019-03-16T14:57:04.888Z,1.90
2019-03-16T14:59:32.311Z,2.03
2019-03-16T15:01:59.704Z,1.90
2019-03-16T15:04:27.071Z,1.80
2019-03-16T15:06:54.435Z,2.83
2019-03-16T15:09:21.810Z,2.10
2019-03-16T15:11:49.255Z,1.27
2019-03-16T15:14:21.542Z,1.40
2019-03-16T15:16:46.011Z,1.40
2019-03-16T15:19:13.408Z,1.70
2019-03-16T15:21:40.838Z,1.60
2019-03-16T15:24:08.240Z,2.47
2019-03-16T15:26:35.594Z,1.50
2019-03-16T15:29:02.863Z,1.90
2019-03-16T15:31:30.188Z,1.50
2019-03-16T15:33:57.591Z,1.97
2019-03-16T15:36:25.010Z,1.73
2019-03-16T15:38:52.291Z,1.90
2019-03-16T15:41:19.733Z,1.73
2019-03-16T15:43:47.007Z,3.47
2019-03-16T15:46:14.276Z,2.20
2019-03-16T15:48:41.711Z,2.47
2019-03-16T15:51:09.135Z,2.70
2019-03-16T15:53:36.407Z,2.80
2019-03-16T15:56:03.787Z,2.07
2019-03-16T15:58:31.181Z,1.30
2019-03-16T16:01:03.565Z,1.40
2019-03-16T16:03:27.911Z,2.60
2019-03-16T16:05:55.274Z,3.80
2019-03-16T16:08:22.560Z,1.70
2019-03-16T16:11:00.543Z,1.67
2019-03-16T16:13:19.579Z,1.57
2019-03-16T16:15:47.111Z,2.10
2019-03-16T16:18:14.634Z,2.90
2019-03-16T16:20:41.907Z,1.60
2019-03-16T16:23:09.171Z,2.47
2019-03-16T16:25:36.529Z,1.80
2019-03-16T16:28:03.895Z,1.80
2019-03-16T16:30:31.259Z,1.20
2019-03-16T16:32:58.648Z,1.43
2019-03-16T16:35:26.056Z,2.13
2019-03-16T16:37:53.311Z,3.67
2019-03-16T16:40:20.772Z,3.40
2019-03-16T16:42:48.211Z,3.03
2019-03-16T16:45:15.719Z,3.57
2019-03-16T16:47:43.214Z,4.03
2019-03-16T16:50:12.176Z,3.53
2019-03-16T16:52:39.459Z,4.53
2019-03-16T16:55:06.847Z,3.33
2019-03-16T16:57:34.252Z,3.83
2019-03-16T17:00:01.616Z,1.90
2019-03-16T17:02:29.088Z,2.30
2019-03-16T17:04:56.462Z,3.00
2019-03-16T17:07:23.737Z,3.90
2019-03-16T17:09:51.178Z,5.27
2019-03-16T17:12:18.486Z,6.10
2019-03-16T17:14:45.859Z,6.10
2019-03-16T17:17:13.100Z,3.10
2019-03-16T17:19:40.343Z,2.53
2019-03-16T17:22:07.698Z,2.60
2019-03-16T17:24:35.048Z,2.60
2019-03-16T17:27:02.399Z,2.30
2019-03-16T17:29:29.719Z,4.63
2019-03-16T17:31:57.059Z,5.87
2019-03-16T17:34:24.422Z,4.17
2019-03-16T17:36:51.791Z,3.27
2019-03-16T17:39:19.035Z,3.97
2019-03-16T17:41:46.388Z,3.97
2019-03-16T17:44:13.783Z,4.33
2019-03-16T17:46:41.128Z,13.23
2019-03-16T17:49:08.476Z,29.30
2019-03-16T17:51:35.838Z,17.30
2019-03-16T17:54:03.280Z,8.80
2019-03-16T17:56:30.671Z,6.63
2019-03-16T17:58:58.046Z,5.80
2019-03-16T18:01:25.303Z,5.63
2019-03-16T18:03:52.527Z,4.53
2019-03-16T18:06:19.899Z,5.20
2019-03-16T18:08:47.274Z,5.40
2019-03-16T18:11:14.667Z,8.27
2019-03-16T18:13:42.092Z,12.47
2019-03-16T18:16:09.362Z,8.97
2019-03-16T18:18:36.715Z,6.30
2019-03-16T18:21:04.070Z,5.37
2019-03-16T18:23:31.315Z,4.70
2019-03-16T18:25:58.679Z,4.67
2019-03-16T18:28:26.127Z,4.70
2019-03-16T18:30:54.471Z,5.20
2019-03-16T18:33:21.928Z,4.73
2019-03-16T18:35:49.274Z,6.00
2019-03-16T18:38:16.511Z,9.27
2019-03-16T18:40:43.904Z,8.27
2019-03-16T18:43:11.382Z,9.40
2019-03-16T18:45:38.837Z,9.07
2019-03-16T18:48:06.133Z,8.13
2019-03-16T18:50:33.822Z,8.60
2019-03-16T18:53:01.163Z,7.00
2019-03-16T18:55:28.535Z,6.30
2019-03-16T18:57:56.108Z,6.80
2019-03-16T19:00:23.461Z,6.60
2019-03-16T19:02:51.119Z,6.50
2019-03-16T19:05:18.503Z,9.30
2019-03-16T19:07:45.860Z,8.30
2019-03-16T19:10:13.223Z,9.10
2019-03-16T19:12:40.599Z,7.13
2019-03-16T19:15:10.237Z,10.20
2019-03-16T19:17:37.619Z,12.87
2019-03-16T19:20:06.084Z,14.33
2019-03-16T19:22:33.430Z,13.90
2019-03-16T19:25:00.699Z,7.90
2019-03-16T19:27:28.178Z,6.77
2019-03-16T19:29:55.423Z,6.60
2019-03-16T19:32:33.248Z,8.13
2019-03-16T19:34:52.473Z,8.10
2019-03-16T19:37:21.373Z,5.93
2019-03-16T19:39:49.193Z,9.20
2019-03-16T19:42:16.859Z,7.80
2019-03-16T19:44:44.295Z,7.03
2019-03-16T19:47:11.672Z,5.60
2019-03-16T19:49:39.059Z,6.90
2019-03-16T19:52:06.335Z,7.83
2019-03-16T19:54:33.711Z,8.77
2019-03-16T19:57:00.974Z,7.57
2019-03-16T19:59:28.210Z,7.17
2019-03-16T20:01:55.471Z,6.00
2019-03-16T20:04:35.107Z,5.43
2019-03-16T20:06:52.048Z,6.10
2019-03-16T20:09:19.442Z,7.97
2019-03-16T20:11:47.011Z,6.70
2019-03-16T20:14:14.379Z,7.00
2019-03-16T20:16:41.739Z,7.10
2019-03-16T20:19:09.112Z,5.70
2019-03-16T20:21:36.447Z,6.23
2019-03-16T20:24:03.910Z,6.90
2019-03-16T20:26:31.371Z,6.63
2019-03-16T20:28:58.740Z,8.50
2019-03-16T20:31:26.099Z,8.63
2019-03-16T20:33:53.358Z,8.77
2019-03-16T20:36:20.715Z,7.90
2019-03-16T20:38:48.091Z,7.73
2019-03-16T20:41:15.491Z,7.60
2019-03-16T20:43:42.846Z,7.17
2019-03-16T20:46:10.299Z,6.77
2019-03-16T20:48:37.616Z,6.80
2019-03-16T20:51:04.968Z,5.53
2019-03-16T20:53:32.231Z,6.50
2019-03-16T20:55:59.591Z,5.70
2019-03-16T20:58:26.838Z,6.30
2019-03-16T21:00:54.280Z,5.53
2019-03-16T21:03:21.771Z,6.00
2019-03-16T21:05:49.136Z,7.20
2019-03-16T21:08:16.486Z,6.37
2019-03-16T21:10:43.843Z,6.00
2019-03-16T21:13:11.099Z,6.50
2019-03-16T21:15:38.464Z,7.17
2019-03-16T21:18:05.830Z,6.60
2019-03-16T21:20:33.073Z,7.70
2019-03-16T21:23:00.563Z,7.70
2019-03-16T21:25:28.607Z,7.43
2019-03-16T21:27:56.195Z,9.20
2019-03-16T21:30:23.779Z,8.07
2019-03-16T21:32:51.263Z,8.10
2019-03-16T21:35:18.611Z,8.13
2019-03-16T21:37:45.970Z,8.43
2019-03-16T21:40:13.635Z,8.40
2019-03-16T21:42:41.015Z,9.17
2019-03-16T21:45:08.487Z,9.20
2019-03-16T21:47:35.755Z,7.97
2019-03-16T21:50:04.078Z,6.47
2019-03-16T21:52:31.445Z,5.50
2019-03-16T21:54:58.805Z,5.80
2019-03-16T21:57:26.273Z,5.77
2019-03-16T21:59:53.895Z,6.13
2019-03-16T22:02:21.255Z,4.50
2019-03-16T22:04:48.490Z,4.77
2019-03-16T22:07:15.921Z,5.50
2019-03-16T22:09:43.288Z,5.27
2019-03-16T22:12:10.571Z,8.30
2019-03-16T22:14:37.941Z,4.40
2019-03-16T22:17:05.314Z,4.13
2019-03-16T22:19:32.559Z,3.73
2019-03-16T22:21:59.826Z,3.00
2019-03-16T22:24:27.182Z,3.67
2019-03-16T22:26:54.455Z,5.10
2019-03-16T22:29:21.739Z,4.60
2019-03-16T22:31:49.144Z,5.00
2019-03-16T22:34:16.495Z,4.70
2019-03-16T22:36:43.893Z,4.63
2019-03-16T22:39:11.247Z,4.87
2019-03-16T22:41:39.003Z,5.43
2019-03-16T22:44:07.083Z,4.80
2019-03-16T22:46:35.178Z,4.83
2019-03-16T22:49:03.043Z,5.47
2019-03-16T22:51:30.559Z,4.30
2019-03-16T22:53:58.159Z,4.40
2019-03-16T22:56:25.695Z,4.20
2019-03-16T22:58:53.063Z,4.90
2019-03-16T23:01:20.385Z,4.20
2019-03-16T23:03:47.736Z,4.50
2019-03-16T23:06:15.220Z,4.00
2019-03-16T23:08:42.760Z,4.83
2019-03-16T23:11:10.206Z,5.43
2019-03-16T23:13:37.573Z,5.70
2019-03-16T23:16:04.963Z,5.57
2019-03-16T23:18:32.384Z,5.03
2019-03-16T23:20:59.751Z,4.67
2019-03-16T23:23:27.119Z,4.50
2019-03-16T23:25:54.451Z,4.27
2019-03-16T23:28:21.817Z,5.10
2019-03-16T23:30:49.078Z,5.03
2019-03-16T23:33:16.319Z,4.03
2019-03-16T23:35:43.763Z,4.73
2019-03-16T23:38:11.120Z,4.80
2019-03-16T23:40:38.466Z,4.93
2019-03-16T23:43:05.727Z,6.70
2019-03-16T23:45:33.084Z,5.90
2019-03-16T23:48:00.583Z,5.07
2019-03-16T23:50:28.066Z,4.97
2019-03-16T23:52:55.474Z,4.70
2019-03-16T23:55:22.795Z,5.10
2019-03-16T23:57:50.067Z,5.07
